Time;durP1;ratioP1;P1;durP2;ratioP2;P2;SDS_P1;SDS_P2;PMS_P1;PMS_P2;Temp;Humidity;BMP_temperature;BMP_pressure;BME280_temperature;BME280_humidity;BME280_pressure;Samples;Min_cycle;Max_cycle;Signal;HPM_P1;HPM_P2
2021/12/23 00:02:03;;;;;;;14.07;8.88;;;;;;;-2.65;100.00;98713.16;10408704;28;20072;-62
2021/12/23 00:07:07;;;;;;;15.60;8.68;;;;;;;-2.69;100.00;98708.94;10410595;28;20044;-62
2021/12/23 00:12:12;;;;;;;14.07;8.38;;;;;;;-2.71;100.00;98695.84;10406977;28;20041;-63
2021/12/23 00:17:22;;;;;;;14.40;8.90;;;;;;;-2.71;100.00;98679.16;10389422;28;20040;-62
2021/12/23 00:28:11;;;;;;;14.13;7.95;;;;;;;-2.77;100.00;98653.06;10428089;28;20128;-62
2021/12/23 00:33:14;;;;;;;13.38;7.78;;;;;;;-2.75;100.00;98664.38;10411678;28;20044;-62
2021/12/23 00:38:22;;;;;;;12.38;7.82;;;;;;;-2.76;100.00;98665.34;10409883;28;20764;-60
2021/12/23 00:43:26;;;;;;;11.32;8.18;;;;;;;-2.77;100.00;98650.44;10398979;28;20050;-58
2021/12/23 00:48:29;;;;;;;14.23;8.43;;;;;;;-2.75;100.00;98640.66;10399962;28;20040;-63
2021/12/23 00:53:37;;;;;;;11.57;8.13;;;;;;;-2.72;100.00;98646.66;10391199;28;20069;-66
2021/12/23 00:58:41;;;;;;;13.70;8.48;;;;;;;-2.70;100.00;98646.56;10392498;28;20113;-62
2021/12/23 01:03:45;;;;;;;14.25;8.75;;;;;;;-2.68;100.00;98634.19;10402116;28;20491;-60
2021/12/23 01:08:49;;;;;;;11.80;8.32;;;;;;;-2.64;100.00;98638.34;10396911;28;20048;-61
2021/12/23 01:14:02;;;;;;;14.30;8.52;;;;;;;-2.61;100.00;98632.94;10400952;28;20571;-63
2021/12/23 01:19:12;;;;;;;13.43;8.40;;;;;;;-2.59;100.00;98636.38;10394123;28;20041;-58
2021/12/23 01:24:15;;;;;;;12.82;7.90;;;;;;;-2.58;100.00;98616.97;10396531;28;20049;-64
2021/12/23 01:29:35;;;;;;;12.32;7.72;;;;;;;-2.58;100.00;98609.06;10397476;28;20501;-59
2021/12/23 01:34:38;;;;;;;10.65;7.25;;;;;;;-2.57;100.00;98599.34;10395171;28;20048;-59
2021/12/23 01:39:41;;;;;;;10.90;7.35;;;;;;;-2.57;100.00;98605.50;10397896;28;20128;-62
2021/12/23 01:44:46;;;;;;;10.75;7.43;;;;;;;-2.56;100.00;98599.31;10365582;28;20056;-61
2021/12/23 01:49:49;;;;;;;12.18;7.90;;;;;;;-2.55;100.00;98587.81;10397821;28;20095;-60
2021/12/23 01:54:52;;;;;;;12.73;7.63;;;;;;;-2.54;100.00;98573.72;10401201;28;20494;-63
2021/12/23 01:59:57;;;;;;;9.82;6.70;;;;;;;-2.52;100.00;98563.91;10392714;28;20046;-60
2021/12/23 02:05:00;;;;;;;10.10;6.75;;;;;;;-2.51;100.00;98560.34;10386285;28;20053;-61
2021/12/23 02:10:22;;;;;;;11.60;7.03;;;;;;;-2.45;100.00;98546.00;10386412;28;20047;-60
2021/12/23 02:15:27;;;;;;;11.68;7.20;;;;;;;-2.43;100.00;98535.38;10396889;28;20072;-60
2021/12/23 02:20:34;;;;;;;11.23;7.13;;;;;;;-2.41;100.00;98522.97;10396967;28;20059;-60
2021/12/23 02:25:37;;;;;;;10.75;6.75;;;;;;;-2.41;100.00;98515.06;10395179;28;20049;-60
2021/12/23 02:30:41;;;;;;;10.48;7.28;;;;;;;-2.42;100.00;98510.72;10396684;28;20053;-63
2021/12/23 02:35:45;;;;;;;9.80;7.20;;;;;;;-2.41;100.00;98501.88;10394432;28;20057;-61
2021/12/23 02:40:49;;;;;;;9.13;6.68;;;;;;;-2.45;100.00;98485.31;10413846;28;20045;-57
2021/12/23 02:45:55;;;;;;;9.73;6.55;;;;;;;-2.46;100.00;98478.31;10439135;28;20041;-61
2021/12/23 02:51:27;;;;;;;9.90;6.97;;;;;;;-2.45;100.00;98461.56;10436634;28;20057;-61
2021/12/23 02:56:30;;;;;;;9.45;7.07;;;;;;;-2.45;100.00;98452.81;10439442;28;20111;-62
2021/12/23 03:01:33;;;;;;;12.57;7.60;;;;;;;-2.43;100.00;98443.03;10452926;28;20140;-61
2021/12/23 03:06:38;;;;;;;14.50;7.57;;;;;;;-2.44;100.00;98433.41;10439943;28;20037;-60
2021/12/23 03:11:46;;;;;;;11.68;7.88;;;;;;;-2.46;100.00;98424.72;10436141;28;20056;-59
2021/12/23 03:16:50;;;;;;;12.10;7.20;;;;;;;-2.44;100.00;98418.44;10435584;28;20060;-63
2021/12/23 03:21:55;;;;;;;11.57;7.50;;;;;;;-2.42;100.00;98405.19;10419116;28;20053;-61
2021/12/23 03:26:58;;;;;;;11.18;7.38;;;;;;;-2.42;100.00;98402.53;10439434;28;20049;-60
2021/12/23 03:32:01;;;;;;;11.85;7.25;;;;;;;-2.38;100.00;98406.69;10436745;28;20063;-59
2021/12/23 03:37:05;;;;;;;11.80;7.55;;;;;;;-2.34;100.00;98392.44;10439446;28;20045;-58
2021/12/23 03:42:14;;;;;;;10.60;7.10;;;;;;;-2.31;100.00;98387.00;10433974;28;20037;-58
2021/12/23 03:47:17;;;;;;;11.10;7.40;;;;;;;-2.30;100.00;98370.22;10435955;28;20047;-59
2021/12/23 03:52:22;;;;;;;10.02;7.20;;;;;;;-2.30;100.00;98351.75;10416574;28;20063;-58
2021/12/23 03:57:25;;;;;;;11.35;7.38;;;;;;;-2.29;100.00;98348.16;10437887;28;20044;-59
2021/12/23 04:02:28;;;;;;;10.35;7.57;;;;;;;-2.29;100.00;98337.59;10433935;28;20143;-59
2021/12/23 04:07:33;;;;;;;13.10;8.10;;;;;;;-2.29;100.00;98332.31;10444262;28;20124;-60
2021/12/23 04:12:36;;;;;;;12.23;7.97;;;;;;;-2.26;100.00;98323.41;10456390;28;20128;-58
2021/12/23 04:17:39;;;;;;;11.25;8.27;;;;;;;-2.25;100.00;98320.69;10423003;28;20477;-61
2021/12/23 04:22:44;;;;;;;12.38;7.88;;;;;;;-2.22;100.00;98327.56;10441333;28;20045;-56
2021/12/23 04:27:50;;;;;;;12.40;8.55;;;;;;;-2.21;100.00;98319.59;10442345;28;20125;-57
2021/12/23 04:32:53;;;;;;;14.15;8.88;;;;;;;-2.22;100.00;98312.59;10443654;28;20041;-59
2021/12/23 04:37:57;;;;;;;14.32;8.45;;;;;;;-2.22;100.00;98304.69;10445158;28;20045;-56
2021/12/23 04:43:01;;;;;;;14.20;9.15;;;;;;;-2.24;100.00;98298.63;10444026;28;20120;-58
2021/12/23 04:48:05;;;;;;;14.77;9.27;;;;;;;-2.23;100.00;98284.50;10441788;28;20072;-56
2021/12/23 04:53:09;;;;;;;15.57;9.85;;;;;;;-2.23;100.00;98268.69;10441943;28;20075;-58
2021/12/23 04:58:12;;;;;;;13.48;9.15;;;;;;;-2.21;100.00;98269.44;10414903;28;20493;-56
2021/12/23 05:03:18;;;;;;;15.18;9.82;;;;;;;-2.20;100.00;98249.16;10421900;28;20053;-56
2021/12/23 05:08:23;;;;;;;15.10;10.23;;;;;;;-2.20;100.00;98236.84;10440490;28;20049;-59
2021/12/23 05:13:26;;;;;;;16.50;9.77;;;;;;;-2.17;100.00;98231.38;10440409;28;20123;-56
2021/12/23 05:18:33;;;;;;;13.95;10.05;;;;;;;-2.13;100.00;98210.97;10437043;28;20057;-57
2021/12/23 05:23:40;;;;;;;16.33;10.45;;;;;;;-2.11;100.00;98195.03;10424489;28;20045;-58
2021/12/23 05:28:43;;;;;;;16.08;10.95;;;;;;;-2.07;100.00;98191.28;10438184;28;20125;-61
2021/12/23 05:33:47;;;;;;;15.98;10.98;;;;;;;-2.06;100.00;98182.44;10439444;28;20107;-61
2021/12/23 05:38:51;;;;;;;17.33;11.50;;;;;;;-2.01;100.00;98183.00;10440071;28;20120;-62
2021/12/23 05:43:55;;;;;;;16.08;11.20;;;;;;;-1.99;100.00;98193.47;10441890;28;20374;-62
2021/12/23 05:48:58;;;;;;;17.58;11.82;;;;;;;-1.94;100.00;98194.06;10436730;28;20144;-61
2021/12/23 05:54:02;;;;;;;15.52;11.50;;;;;;;-1.93;100.00;98175.47;10397179;28;20045;-62
2021/12/23 05:59:07;;;;;;;19.67;11.63;;;;;;;-1.89;100.00;98171.72;10394240;28;20080;-61
2021/12/23 06:10:17;;;;;;;18.17;12.80;;;;;;;-1.86;100.00;98182.13;10409531;28;20051;-59
2021/12/23 06:15:20;;;;;;;19.10;13.00;;;;;;;-1.86;100.00;98181.25;10414266;28;20541;-59
2021/12/23 06:20:23;;;;;;;18.00;13.40;;;;;;;-1.83;100.00;98159.13;10412354;28;20052;-61
2021/12/23 06:25:28;;;;;;;20.77;12.68;;;;;;;-1.83;100.00;98174.97;10412458;28;20120;-60
2021/12/23 06:30:31;;;;;;;20.35;12.80;;;;;;;-1.83;100.00;98159.13;10412720;28;20127;-63
2021/12/23 06:35:36;;;;;;;21.63;14.07;;;;;;;-1.83;100.00;98153.84;10419596;28;20053;-63
2021/12/23 06:40:43;;;;;;;20.83;13.80;;;;;;;-1.84;100.00;98160.91;10406999;28;20047;-59
2021/12/23 06:45:48;;;;;;;20.88;13.75;;;;;;;-1.84;100.00;98145.06;10383739;28;20321;-62
2021/12/23 06:50:54;;;;;;;23.10;13.70;;;;;;;-1.81;100.00;98133.44;10380284;28;20056;-63
2021/12/23 06:56:02;;;;;;;22.45;13.90;;;;;;;-1.83;100.00;98123.00;10399241;28;20124;-61
2021/12/23 07:01:05;;;;;;;22.60;14.18;;;;;;;-1.82;100.00;98137.91;10392201;28;20412;-55
2021/12/23 07:06:09;;;;;;;27.05;14.07;;;;;;;-1.83;100.00;98141.47;10395652;28;20060;-66
2021/12/23 07:11:13;;;;;;;20.50;13.80;;;;;;;-1.83;100.00;98123.00;10393106;28;20076;-57
2021/12/23 07:16:16;;;;;;;19.52;13.02;;;;;;;-1.80;100.00;98114.03;10386130;28;20046;-63
2021/12/23 07:21:19;;;;;;;22.48;13.90;;;;;;;-1.79;100.00;98137.72;10391068;28;20041;-59
2021/12/23 07:26:24;;;;;;;19.65;14.02;;;;;;;-1.80;100.00;98162.44;10397812;28;20136;-51
2021/12/23 07:31:27;;;;;;;20.13;13.73;;;;;;;-1.76;100.00;98141.97;10379074;28;20131;-54
2021/12/23 07:36:30;;;;;;;21.27;13.70;;;;;;;-1.71;100.00;98129.34;10396038;28;20127;-54
2021/12/23 07:41:35;;;;;;;22.25;14.45;;;;;;;-1.67;100.00;98104.44;10405026;28;20454;-55
2021/12/23 07:46:39;;;;;;;21.95;15.02;;;;;;;-1.64;100.00;98106.91;10384298;28;20038;-58
2021/12/23 07:51:42;;;;;;;22.50;14.88;;;;;;;-1.60;100.00;98119.00;10399869;28;20498;-55
2021/12/23 07:56:47;;;;;;;22.88;15.02;;;;;;;-1.59;100.00;98123.31;10402585;28;20069;-58
2021/12/23 08:01:50;;;;;;;25.88;15.10;;;;;;;-1.57;100.00;98108.22;10404050;28;20411;-57
2021/12/23 08:06:57;;;;;;;26.35;14.57;;;;;;;-1.51;100.00;98128.13;10405226;28;20518;-52
2021/12/23 08:12:05;;;;;;;24.30;15.43;;;;;;;-1.49;100.00;98130.69;10398996;28;20045;-58
2021/12/23 08:17:08;;;;;;;24.02;15.15;;;;;;;-1.43;100.00;98117.09;10377214;28;20136;-57
2021/12/23 08:22:11;;;;;;;21.45;13.50;;;;;;;-1.34;100.00;98105.97;10400105;28;20135;-59
2021/12/23 08:27:17;;;;;;;22.48;14.20;;;;;;;-1.25;100.00;98123.94;10400265;28;20049;-56
2021/12/23 08:32:21;;;;;;;23.75;15.13;;;;;;;-1.21;100.00;98099.94;10398215;28;20420;-55
2021/12/23 08:37:24;;;;;;;21.25;14.35;;;;;;;-1.17;100.00;98096.16;10402574;28;20129;-51
2021/12/23 08:42:29;;;;;;;22.13;14.65;;;;;;;-1.15;100.00;98070.47;10383628;28;20050;-60
2021/12/23 08:47:32;;;;;;;23.35;15.02;;;;;;;-1.13;100.00;98063.31;10401293;28;20042;-52
2021/12/23 08:52:38;;;;;;;26.38;16.15;;;;;;;-1.11;100.00;98058.75;10462490;28;20534;-57
2021/12/23 08:57:43;;;;;;;20.88;14.05;;;;;;;-1.12;100.00;98036.75;10480693;28;20542;-59
2021/12/23 09:02:48;;;;;;;29.33;17.35;;;;;;;-1.06;100.00;98040.81;10475488;28;20565;-56
2021/12/23 09:07:52;;;;;;;22.23;15.57;;;;;;;-1.01;100.00;98028.16;10457065;28;20048;-59
2021/12/23 09:12:56;;;;;;;23.08;15.38;;;;;;;-0.97;100.00;98026.16;10475031;28;20051;-54
2021/12/23 09:17:59;;;;;;;22.40;14.60;;;;;;;-0.93;100.00;98020.56;10478277;28;20048;-57
2021/12/23 09:23:06;;;;;;;22.30;14.50;;;;;;;-0.85;100.00;98035.09;10478679;28;20036;-57
2021/12/23 09:28:34;;;;;;;22.77;14.70;;;;;;;-0.86;100.00;98050.13;10452227;28;20040;-59
2021/12/23 09:33:38;;;;;;;21.80;15.02;;;;;;;-0.81;100.00;98037.44;10473201;28;20051;-55
2021/12/23 09:38:42;;;;;;;23.33;14.50;;;;;;;-0.73;100.00;98026.38;10474933;28;20535;-58
2021/12/23 09:43:47;;;;;;;22.42;15.27;;;;;;;-0.65;100.00;98013.47;10476754;28;20496;-53
2021/12/23 09:48:50;;;;;;;23.80;15.88;;;;;;;-0.62;100.00;98015.94;10478425;28;20059;-57
2021/12/23 09:53:57;;;;;;;25.27;15.82;;;;;;;-0.57;100.00;98012.97;10465410;28;20043;-58
2021/12/23 09:59:06;;;;;;;23.80;15.43;;;;;;;-0.58;100.00;98005.97;10467639;28;20493;-58
2021/12/23 10:04:10;;;;;;;21.88;16.13;;;;;;;-0.50;100.00;97984.31;10463824;28;20044;-59
2021/12/23 10:09:17;;;;;;;24.95;15.95;;;;;;;-0.50;100.00;97968.44;10454343;28;20040;-58
2021/12/23 10:30:49;;;;;;;24.55;16.65;;;;;;;-0.32;100.00;97935.44;10462165;28;20092;-53
2021/12/23 10:41:20;;;;;;;25.95;17.45;;;;;;;-0.08;100.00;97912.66;10470642;28;20045;-59
2021/12/23 10:46:27;;;;;;;25.67;18.00;;;;;;;-0.08;100.00;97894.13;10473042;28;20045;-60
2021/12/23 10:51:57;;;;;;;24.85;16.90;;;;;;;-0.02;100.00;97896.38;10449790;28;20056;-57
2021/12/23 11:02:30;;;;;;;26.67;17.92;;;;;;;0.10;100.00;97881.41;10450290;28;20416;-54
2021/12/23 11:07:49;;;;;;;26.25;18.02;;;;;;;0.16;100.00;97886.28;10455370;28;20146;-56
2021/12/23 11:30:02;;;;;;;26.92;17.25;;;;;;;0.39;100.00;97841.38;10449384;28;19921;-53
2021/12/23 11:40:49;;;;;;;24.05;17.30;;;;;;;0.45;100.00;97825.03;10446293;28;20045;-54
2021/12/23 11:45:52;;;;;;;24.33;16.70;;;;;;;0.53;100.00;97803.25;10432146;28;20060;-55
2021/12/23 11:51:07;;;;;;;25.88;17.02;;;;;;;0.58;100.00;97780.75;10454206;28;20044;-55
2021/12/23 11:56:13;;;;;;;25.45;17.17;;;;;;;0.65;100.00;97788.28;10460651;28;20047;-54
2021/12/23 12:01:19;;;;;;;26.30;16.17;;;;;;;0.69;100.00;97774.66;10434586;28;20073;-55
2021/12/23 12:06:27;;;;;;;24.40;15.77;;;;;;;0.73;100.00;97746.09;10450643;28;20192;-53
2021/12/23 12:11:30;;;;;;;24.10;16.38;;;;;;;0.81;100.00;97742.88;10443068;28;20069;-60
2021/12/23 12:16:35;;;;;;;24.42;15.60;;;;;;;0.83;100.00;97715.28;10448676;28;20060;-53
2021/12/23 12:21:46;;;;;;;21.38;14.85;;;;;;;0.86;100.00;97704.44;10459299;28;20555;-56
2021/12/23 12:26:59;;;;;;;25.40;15.55;;;;;;;0.93;100.00;97696.88;10470457;28;20454;-62
2021/12/23 12:32:02;;;;;;;24.15;15.70;;;;;;;0.96;100.00;97685.16;10458411;28;20051;-56
2021/12/23 12:37:08;;;;;;;24.73;15.45;;;;;;;0.98;100.00;97678.78;10459140;28;20053;-58
2021/12/23 12:42:29;;;;;;;22.27;14.35;;;;;;;1.02;100.00;97682.03;10462929;28;20520;-53
2021/12/23 12:47:37;;;;;;;22.90;13.55;;;;;;;1.03;100.00;97673.09;10459273;28;20487;-56
2021/12/23 12:52:44;;;;;;;23.90;14.95;;;;;;;1.05;100.00;97666.75;10456311;28;20056;-59
2021/12/23 12:57:50;;;;;;;21.45;14.75;;;;;;;1.10;100.00;97652.25;10453068;28;20053;-53
2021/12/23 13:02:57;;;;;;;26.75;16.10;;;;;;;1.12;100.00;97658.28;10455913;28;20067;-58
2021/12/23 13:08:14;;;;;;;25.10;16.17;;;;;;;1.18;100.00;97641.88;10447279;28;20049;-65
2021/12/23 13:13:32;;;;;;;22.75;14.68;;;;;;;1.19;100.00;97631.16;10445025;28;20048;-54
2021/12/23 13:19:12;;;;;;;25.90;14.93;;;;;;;1.22;100.00;97632.72;10454894;28;20068;-54
2021/12/23 13:24:19;;;;;;;23.50;14.70;;;;;;;1.23;100.00;97608.69;10433199;28;20055;-63
2021/12/23 13:29:27;;;;;;;21.48;13.73;;;;;;;1.27;100.00;97608.47;10452018;28;20044;-58
2021/12/23 13:34:33;;;;;;;22.63;13.27;;;;;;;1.23;100.00;97614.00;10437744;28;20041;-57
2021/12/23 13:39:41;;;;;;;23.83;15.30;;;;;;;1.18;100.00;97610.88;10454346;28;20131;-63
2021/12/23 13:44:48;;;;;;;26.30;15.35;;;;;;;1.17;100.00;97643.69;10455988;28;20055;-59
2021/12/23 13:49:53;;;;;;;23.40;14.70;;;;;;;1.15;100.00;97642.97;10444649;28;20067;-60
2021/12/23 13:55:00;;;;;;;22.20;14.50;;;;;;;1.18;100.00;97644.53;10436384;28;20496;-59
2021/12/23 14:00:13;;;;;;;25.95;16.05;;;;;;;1.19;100.00;97623.19;10451433;28;21198;-60
2021/12/23 14:05:17;;;;;;;23.88;16.33;;;;;;;1.21;100.00;97634.53;10434076;28;20290;-57
2021/12/23 14:10:25;;;;;;;21.95;14.63;;;;;;;1.19;100.00;97628.50;10452077;28;20037;-56
2021/12/23 14:15:29;;;;;;;22.45;15.30;;;;;;;1.17;100.00;97627.78;10447186;28;20060;-58
2021/12/23 14:26:09;;;;;;;25.67;15.27;;;;;;;1.21;100.00;97594.75;10452566;28;20112;-58
2021/12/23 14:31:24;;;;;;;22.13;14.75;;;;;;;1.17;100.00;97626.94;10453731;28;20044;-61
2021/12/23 14:36:30;;;;;;;23.95;14.85;;;;;;;1.17;100.00;97587.97;10437711;28;20194;-59
2021/12/23 14:41:39;;;;;;;24.85;15.00;;;;;;;1.17;100.00;97608.38;10454174;28;20049;-58
2021/12/23 14:46:45;;;;;;;22.27;15.45;;;;;;;1.11;100.00;97604.41;10453608;28;20052;-54
2021/12/23 14:51:52;;;;;;;23.17;15.52;;;;;;;1.10;100.00;97592.09;10435769;28;20040;-54
2021/12/23 14:57:07;;;;;;;25.77;15.32;;;;;;;1.10;100.00;97593.88;10453260;28;20044;-56
2021/12/23 15:02:20;;;;;;;24.88;14.95;;;;;;;1.08;100.00;97570.16;10438462;28;20037;-55
2021/12/23 15:07:25;;;;;;;22.13;15.10;;;;;;;1.06;100.00;97562.28;10453102;28;20047;-57
2021/12/23 15:12:36;;;;;;;22.58;15.40;;;;;;;1.08;100.00;97540.97;10428144;28;20514;-59
2021/12/23 15:17:47;;;;;;;22.58;14.73;;;;;;;1.05;100.00;97565.09;10452415;28;20044;-58
2021/12/23 15:22:50;;;;;;;24.73;15.55;;;;;;;1.04;100.00;97558.09;10441205;28;20574;-60
2021/12/23 15:27:56;;;;;;;24.55;15.10;;;;;;;1.03;100.00;97559.06;10453662;28;20048;-59
2021/12/23 15:33:00;;;;;;;22.27;14.75;;;;;;;1.03;100.00;97553.75;10454118;28;20472;-56
2021/12/23 15:38:05;;;;;;;26.88;15.70;;;;;;;1.04;100.00;97544.81;10450894;28;20127;-58
2021/12/23 15:43:10;;;;;;;22.25;14.80;;;;;;;1.04;100.00;97523.59;10453126;28;20059;-59
2021/12/23 15:48:14;;;;;;;24.48;15.60;;;;;;;1.05;100.00;97528.81;10451457;28;20040;-56
2021/12/23 15:53:17;;;;;;;24.13;15.00;;;;;;;1.04;100.00;97520.94;10430254;28;20150;-56
2021/12/23 15:58:22;;;;;;;24.48;15.30;;;;;;;1.05;100.00;97512.91;10464532;28;20048;-60
2021/12/23 16:03:26;;;;;;;23.23;15.27;;;;;;;1.04;100.00;97502.38;10475711;28;20036;-57
2021/12/23 16:08:31;;;;;;;25.52;15.95;;;;;;;1.05;100.00;97488.16;10479834;28;20127;-58
2021/12/23 16:13:36;;;;;;;26.27;16.85;;;;;;;1.04;100.00;97483.81;10470643;28;20043;-56
2021/12/23 16:18:40;;;;;;;26.35;15.20;;;;;;;1.03;100.00;97482.13;10457130;28;20044;-57
2021/12/23 16:23:43;;;;;;;24.27;15.73;;;;;;;1.04;100.00;97468.75;10476480;28;20048;-56
2021/12/23 16:28:49;;;;;;;27.08;17.30;;;;;;;1.03;100.00;97479.47;10479179;28;20377;-54
2021/12/23 16:33:53;;;;;;;26.42;17.27;;;;;;;1.02;100.00;97446.81;10469427;28;20488;-57
2021/12/23 16:38:58;;;;;;;26.50;16.73;;;;;;;1.03;100.00;97426.44;10448958;28;20049;-57
2021/12/23 16:44:07;;;;;;;28.90;16.63;;;;;;;1.05;100.00;97425.38;10471943;28;20045;-59
2021/12/23 16:49:14;;;;;;;27.23;16.90;;;;;;;1.05;100.00;97417.41;10467118;28;20045;-55
2021/12/23 16:54:19;;;;;;;30.20;17.33;;;;;;;1.06;100.00;97397.84;10440643;28;20045;-60
2021/12/23 16:59:32;;;;;;;27.85;16.55;;;;;;;1.06;100.00;97404.97;10439480;28;20107;-58
2021/12/23 17:04:38;;;;;;;29.15;18.02;;;;;;;1.06;100.00;97392.53;10438755;28;20063;-57
2021/12/23 17:09:46;;;;;;;29.33;18.23;;;;;;;1.07;100.00;97385.44;10428424;28;20045;-58
2021/12/23 17:14:53;;;;;;;31.98;18.52;;;;;;;1.10;100.00;97373.72;10439466;28;20044;-59
2021/12/23 17:20:05;;;;;;;31.25;19.10;;;;;;;1.14;100.00;97359.25;10440284;28;20033;-56
2021/12/23 17:25:17;;;;;;;31.88;19.45;;;;;;;1.17;100.00;97364.31;10437792;28;20033;-59
2021/12/23 17:30:31;;;;;;;31.60;19.33;;;;;;;1.19;100.00;97347.28;10421723;28;20033;-58
2021/12/23 17:35:41;;;;;;;32.03;19.00;;;;;;;1.22;100.00;97320.50;10439369;28;20056;-57
2021/12/23 17:40:58;;;;;;;30.95;20.10;;;;;;;1.27;100.00;97327.22;10434524;28;20400;-61
2021/12/23 17:46:10;;;;;;;31.60;19.05;;;;;;;1.28;100.00;97339.50;10443500;28;20124;-60
2021/12/23 17:51:18;;;;;;;27.73;18.85;;;;;;;1.29;100.00;97339.41;10457050;28;20453;-61
2021/12/23 17:56:23;;;;;;;30.38;18.45;;;;;;;1.33;100.00;97332.00;10472528;28;20036;-59
2021/12/23 18:01:31;;;;;;;29.52;18.23;;;;;;;1.42;100.00;97325.91;10479787;28;20047;-55
2021/12/23 18:06:42;;;;;;;27.92;17.35;;;;;;;1.45;100.00;97312.41;10480605;28;20123;-60
2021/12/23 18:11:51;;;;;;;29.55;18.25;;;;;;;1.46;100.00;97310.56;10447367;28;20131;-60
2021/12/23 18:17:00;;;;;;;32.10;20.00;;;;;;;1.49;100.00;97308.47;10469179;28;20041;-61
2021/12/23 18:22:09;;;;;;;37.28;23.58;;;;;;;1.53;100.00;97304.59;10476848;28;20041;-61
2021/12/23 18:27:25;;;;;;;33.30;20.00;;;;;;;1.57;100.00;97291.91;10463010;28;20112;-60
2021/12/23 18:32:32;;;;;;;28.85;18.40;;;;;;;1.62;100.00;97291.50;10469680;28;20059;-60
2021/12/23 18:37:43;;;;;;;29.92;19.50;;;;;;;1.63;100.00;97274.59;10487105;28;20396;-58
2021/12/23 18:42:53;;;;;;;30.05;19.17;;;;;;;1.63;100.00;97262.19;10470382;28;20040;-59
2021/12/23 18:48:02;;;;;;;27.25;18.00;;;;;;;1.66;100.00;97263.72;10473609;28;20091;-58
2021/12/23 18:53:12;;;;;;;30.85;20.02;;;;;;;1.66;100.00;97271.69;10430757;28;20048;-56
2021/12/23 18:58:19;;;;;;;29.85;18.38;;;;;;;1.66;100.00;97269.03;10441975;28;20067;-54
2021/12/23 19:04:07;;;;;;;30.92;18.52;;;;;;;1.66;100.00;97259.25;10438293;28;20048;-60
2021/12/23 19:09:18;;;;;;;28.38;18.27;;;;;;;1.70;100.00;97265.16;10349775;28;20429;-53
2021/12/23 19:14:24;;;;;;;28.50;18.42;;;;;;;1.72;100.00;97270.31;10352840;28;20130;-53
2021/12/23 19:19:31;;;;;;;28.52;18.23;;;;;;;1.75;100.00;97264.75;10392762;28;20545;-53
2021/12/23 19:24:38;;;;;;;30.15;18.73;;;;;;;1.81;100.00;97264.19;10371790;28;20095;-56
2021/12/23 19:29:42;;;;;;;29.05;18.15;;;;;;;1.84;100.00;97250.66;10395482;28;20519;-54
2021/12/23 19:34:53;;;;;;;28.40;17.67;;;;;;;1.89;100.00;97258.22;10397452;28;20045;-58
2021/12/23 19:39:57;;;;;;;29.48;18.20;;;;;;;1.94;100.00;97259.47;10396962;28;20395;-52
2021/12/23 19:45:03;;;;;;;27.45;17.00;;;;;;;2.04;100.00;97254.22;10402595;28;20049;-57
2021/12/23 19:50:14;;;;;;;29.08;17.23;;;;;;;2.08;100.00;97249.44;10402670;28;20084;-56
2021/12/23 19:55:22;;;;;;;25.50;17.05;;;;;;;2.13;100.00;97252.53;10401426;28;20535;-57
2021/12/23 20:00:32;;;;;;;26.05;16.40;;;;;;;2.16;100.00;97246.94;10398173;28;20058;-56
2021/12/23 20:05:40;;;;;;;25.52;16.48;;;;;;;2.15;100.00;97248.78;10408483;28;20416;-57
2021/12/23 20:10:48;;;;;;;24.42;16.88;;;;;;;2.17;100.00;97245.13;10435758;28;20048;-61
2021/12/23 20:15:54;;;;;;;26.77;17.33;;;;;;;2.17;100.00;97234.50;10419700;28;20096;-58
2021/12/23 20:21:02;;;;;;;28.08;17.92;;;;;;;2.20;100.00;97234.22;10430632;28;20047;-56
2021/12/23 20:26:07;;;;;;;30.23;18.52;;;;;;;2.21;100.00;97225.28;10408219;28;20069;-53
2021/12/23 20:31:14;;;;;;;28.00;18.50;;;;;;;2.26;100.00;97223.06;10418567;28;20048;-53
2021/12/23 20:36:24;;;;;;;33.28;18.95;;;;;;;2.31;100.00;97210.16;10437817;28;20139;-55
2021/12/23 20:41:34;;;;;;;31.17;19.50;;;;;;;2.36;100.00;97221.22;10433488;28;20037;-54
2021/12/23 20:46:42;;;;;;;27.88;19.23;;;;;;;2.42;100.00;97215.34;10427723;28;20406;-57
2021/12/23 20:51:53;;;;;;;29.10;19.52;;;;;;;2.47;100.00;97205.16;10435615;28;20063;-53
2021/12/23 20:57:00;;;;;;;28.02;19.05;;;;;;;2.55;100.00;97216.88;10435104;28;20534;-52
2021/12/23 21:02:11;;;;;;;28.48;19.42;;;;;;;2.57;100.00;97220.25;10428182;28;20366;-53
2021/12/23 21:07:19;;;;;;;31.15;20.77;;;;;;;2.60;100.00;97196.88;10402448;28;20182;-60
2021/12/23 21:12:27;;;;;;;30.30;20.73;;;;;;;2.68;100.00;97177.56;10434052;28;20033;-59
2021/12/23 21:17:32;;;;;;;35.65;23.10;;;;;;;2.71;100.00;97181.75;10435882;28;20549;-56
2021/12/23 21:22:55;;;;;;;33.58;20.90;;;;;;;2.76;100.00;97172.34;10432607;28;20473;-57
2021/12/23 21:28:07;;;;;;;31.88;21.33;;;;;;;2.78;100.00;97150.97;10431966;28;20135;-59
2021/12/23 21:33:17;;;;;;;27.88;20.00;;;;;;;2.82;100.00;97156.81;10435787;28;20095;-58
2021/12/23 21:38:26;;;;;;;32.47;19.25;;;;;;;2.84;100.00;97141.56;10418927;28;20048;-56
2021/12/23 21:43:31;;;;;;;27.80;19.08;;;;;;;2.89;100.00;97131.31;10415782;28;20051;-58
2021/12/23 21:48:37;;;;;;;28.70;19.52;;;;;;;2.98;100.00;97125.16;10435711;28;20357;-58
2021/12/23 21:53:45;;;;;;;29.42;18.70;;;;;;;3.03;100.00;97114.88;10414207;28;20055;-59
2021/12/23 21:58:54;;;;;;;26.55;18.63;;;;;;;3.13;100.00;97125.50;10435340;28;20103;-57
2021/12/23 22:04:02;;;;;;;23.52;16.10;;;;;;;3.16;100.00;97127.03;10436728;28;20158;-52
2021/12/23 22:09:11;;;;;;;26.42;16.15;;;;;;;3.20;100.00;97125.75;10415423;28;20057;-53
2021/12/23 22:14:16;;;;;;;26.33;16.10;;;;;;;3.38;100.00;97145.28;10404898;28;21121;-52
2021/12/23 22:19:22;;;;;;;27.08;15.90;;;;;;;3.52;100.00;97130.66;10422637;28;20532;-52
2021/12/23 22:24:33;;;;;;;24.88;15.88;;;;;;;3.61;100.00;97123.56;10421549;28;20501;-51
2021/12/23 22:29:39;;;;;;;22.87;14.93;;;;;;;3.70;100.00;97128.00;10409790;28;20053;-56
2021/12/23 22:34:46;;;;;;;23.48;16.05;;;;;;;3.70;100.00;97116.50;10408460;28;20169;-56
2021/12/23 22:39:59;;;;;;;25.13;16.02;;;;;;;3.70;100.00;97121.84;10429247;28;20048;-54
2021/12/23 22:45:06;;;;;;;25.20;15.55;;;;;;;3.75;100.00;97110.72;10422985;28;20040;-52
2021/12/23 22:50:17;;;;;;;24.08;15.30;;;;;;;3.81;100.00;97110.13;10410028;28;20045;-53
2021/12/23 22:55:23;;;;;;;24.65;16.52;;;;;;;3.84;100.00;97101.81;10426423;28;20460;-52
2021/12/23 23:00:33;;;;;;;24.25;16.35;;;;;;;3.85;100.00;97087.53;10412893;28;20070;-54
2021/12/23 23:05:42;;;;;;;24.80;15.90;;;;;;;3.87;100.00;97080.22;10428812;28;20049;-52
2021/12/23 23:10:56;;;;;;;25.30;16.10;;;;;;;3.91;100.00;97086.94;10412513;28;20061;-58
2021/12/23 23:21:35;;;;;;;25.80;17.05;;;;;;;4.05;100.00;97090.06;10414166;28;20187;-52
2021/12/23 23:26:47;;;;;;;27.92;18.65;;;;;;;4.04;100.00;97091.88;10428318;28;20055;-55
2021/12/23 23:37:20;;;;;;;37.25;22.10;;;;;;;3.95;100.00;97053.63;10432511;28;20062;-57
2021/12/23 23:42:30;;;;;;;38.05;22.25;;;;;;;3.91;100.00;97046.09;10415222;28;20053;-59
2021/12/23 23:47:33;;;;;;;39.17;23.45;;;;;;;3.83;100.00;97041.53;10432664;28;20115;-57
2021/12/23 23:52:36;;;;;;;45.63;24.77;;;;;;;3.82;100.00;97029.25;10430061;28;20041;-56
2021/12/23 23:57:41;;;;;;;46.58;25.73;;;;;;;3.84;100.00;97027.22;10432739;28;20045;-56
